Etusivu
METAR-TAF:

METAR-TAF

Lentoasemat :

Dalton Municipal Airport

Dalton, Georgia, Yhdysvallat

Leveyspiiri: 34-43-18N, Pituuspiiri: 084-52-09W, korkeus merenpinnasta: 216 m

Tämänhetkinen sää

Tämä raportti tehtiin 24 minuuttia sitten, kello 00.35 UTC
Tuuli 5 kn luoteesta
Lämpötila 3°C
Kosteus 100%
Ilmanpaine 1027 hPa
Näkyvyys: 6.4 km
Hajanaisia pilviä 300 ft:n korkeudessa
Hajonneita pilviä 700 ft:n korkeudessa
Pilvistä 6500 ft:n korkeudessa
kovaa sadetta

METAR: KDNN 200035Z AUTO 32005KT 4SM +RA SCT003 BKN007 OVC065 03/03 A3032 RMK AO2 LTG DSNT SW AND W

Aika: 19:59 (00:59 UTC)


TAF: puuttuu

Säähavainnot ja -ennusteet yli 4000 lentoasemalta (METAR- ja TAF-raportit).

Käytössä olevat sääasemat on merkitty karttaan keltaisilla ja punaisilla pisteillä.

Aseta hiiri pisteen päälle nähdäksesi sääaseman nimen.

Klikkaa sitten nähdäksesi säähavainnot ja -ennusteet.

Kartan vaihtaminen: klikkaa mustalla rastilla varustettuja vihreitä pisteitä, niin voit zoomata sisään; viivalla varustettua vihreää pistettä, niin voit zoomata ulos tai vihreitä nuolia, niin pääset viereisille kartoille.


METAR-TAF: